sensor_id;sensor_type;location;lat;lon;timestamp;P1;durP1;ratioP1;P2;durP2;ratioP2
21206;SDS011;10761;48.532;8.026;2023-05-07T00:00:20;2.22;;;1.92;;
21206;SDS011;10761;48.532;8.026;2023-05-07T00:02:46;5.28;;;2.70;;
21206;SDS011;10761;48.532;8.026;2023-05-07T00:05:12;3.88;;;2.70;;
21206;SDS011;10761;48.532;8.026;2023-05-07T00:07:37;6.40;;;3.00;;
21206;SDS011;10761;48.532;8.026;2023-05-07T00:10:03;4.05;;;3.03;;
21206;SDS011;10761;48.532;8.026;2023-05-07T00:12:31;5.55;;;2.13;;
21206;SDS011;10761;48.532;8.026;2023-05-07T00:14:58;4.22;;;2.20;;
21206;SDS011;10761;48.532;8.026;2023-05-07T00:17:28;3.03;;;2.35;;
21206;SDS011;10761;48.532;8.026;2023-05-07T00:19:54;2.80;;;2.08;;
21206;SDS011;10761;48.532;8.026;2023-05-07T00:22:20;2.95;;;1.98;;
21206;SDS011;10761;48.532;8.026;2023-05-07T00:24:46;4.05;;;2.13;;
21206;SDS011;10761;48.532;8.026;2023-05-07T00:27:12;3.65;;;2.17;;
21206;SDS011;10761;48.532;8.026;2023-05-07T00:29:37;3.03;;;2.17;;
21206;SDS011;10761;48.532;8.026;2023-05-07T00:32:03;2.40;;;1.70;;
21206;SDS011;10761;48.532;8.026;2023-05-07T00:34:29;2.83;;;1.85;;
21206;SDS011;10761;48.532;8.026;2023-05-07T00:36:55;2.50;;;1.80;;
21206;SDS011;10761;48.532;8.026;2023-05-07T00:39:20;4.85;;;2.75;;
21206;SDS011;10761;48.532;8.026;2023-05-07T00:41:46;4.78;;;3.55;;
21206;SDS011;10761;48.532;8.026;2023-05-07T00:44:12;7.07;;;3.00;;
21206;SDS011;10761;48.532;8.026;2023-05-07T00:46:39;6.45;;;2.60;;
21206;SDS011;10761;48.532;8.026;2023-05-07T00:49:05;2.40;;;2.20;;
21206;SDS011;10761;48.532;8.026;2023-05-07T00:51:31;8.73;;;2.65;;
21206;SDS011;10761;48.532;8.026;2023-05-07T00:53:59;2.67;;;2.40;;
21206;SDS011;10761;48.532;8.026;2023-05-07T00:56:25;5.10;;;2.28;;
21206;SDS011;10761;48.532;8.026;2023-05-07T00:58:52;3.17;;;2.28;;
21206;SDS011;10761;48.532;8.026;2023-05-07T01:01:17;2.58;;;2.38;;
21206;SDS011;10761;48.532;8.026;2023-05-07T01:03:43;3.30;;;2.67;;
21206;SDS011;10761;48.532;8.026;2023-05-07T01:06:09;5.05;;;2.50;;
21206;SDS011;10761;48.532;8.026;2023-05-07T01:08:37;6.03;;;2.63;;
21206;SDS011;10761;48.532;8.026;2023-05-07T01:11:06;6.15;;;2.80;;
21206;SDS011;10761;48.532;8.026;2023-05-07T01:13:33;5.05;;;2.58;;
21206;SDS011;10761;48.532;8.026;2023-05-07T01:16:00;4.10;;;2.78;;
21206;SDS011;10761;48.532;8.026;2023-05-07T01:18:25;6.55;;;3.28;;
21206;SDS011;10761;48.532;8.026;2023-05-07T01:20:52;5.28;;;2.67;;
21206;SDS011;10761;48.532;8.026;2023-05-07T01:23:18;7.55;;;3.33;;
21206;SDS011;10761;48.532;8.026;2023-05-07T01:25:50;5.75;;;3.10;;
21206;SDS011;10761;48.532;8.026;2023-05-07T01:28:17;4.30;;;3.35;;
21206;SDS011;10761;48.532;8.026;2023-05-07T01:30:43;4.25;;;3.50;;
21206;SDS011;10761;48.532;8.026;2023-05-07T01:33:20;6.85;;;3.63;;
21206;SDS011;10761;48.532;8.026;2023-05-07T01:35:47;4.10;;;3.45;;
21206;SDS011;10761;48.532;8.026;2023-05-07T01:38:16;3.83;;;3.42;;
21206;SDS011;10761;48.532;8.026;2023-05-07T01:40:42;6.72;;;3.78;;
21206;SDS011;10761;48.532;8.026;2023-05-07T01:43:08;6.78;;;3.70;;
21206;SDS011;10761;48.532;8.026;2023-05-07T01:45:35;4.10;;;3.60;;
21206;SDS011;10761;48.532;8.026;2023-05-07T01:48:01;3.50;;;3.20;;
21206;SDS011;10761;48.532;8.026;2023-05-07T01:50:27;4.20;;;2.83;;
21206;SDS011;10761;48.532;8.026;2023-05-07T01:52:54;5.20;;;3.45;;
21206;SDS011;10761;48.532;8.026;2023-05-07T01:55:20;10.43;;;4.07;;
21206;SDS011;10761;48.532;8.026;2023-05-07T01:57:46;3.33;;;2.90;;
21206;SDS011;10761;48.532;8.026;2023-05-07T02:00:12;6.38;;;2.90;;
21206;SDS011;10761;48.532;8.026;2023-05-07T02:02:38;5.20;;;2.90;;
21206;SDS011;10761;48.532;8.026;2023-05-07T02:05:03;4.93;;;2.60;;
21206;SDS011;10761;48.532;8.026;2023-05-07T02:07:29;4.60;;;2.67;;
21206;SDS011;10761;48.532;8.026;2023-05-07T02:09:55;4.63;;;3.20;;
21206;SDS011;10761;48.532;8.026;2023-05-07T02:12:21;6.85;;;2.95;;
21206;SDS011;10761;48.532;8.026;2023-05-07T02:14:47;4.32;;;3.05;;
21206;SDS011;10761;48.532;8.026;2023-05-07T02:17:13;4.85;;;2.60;;
21206;SDS011;10761;48.532;8.026;2023-05-07T02:19:38;4.88;;;2.33;;
21206;SDS011;10761;48.532;8.026;2023-05-07T02:22:04;3.08;;;2.70;;
21206;SDS011;10761;48.532;8.026;2023-05-07T02:24:30;2.90;;;2.60;;
21206;SDS011;10761;48.532;8.026;2023-05-07T02:26:55;6.20;;;2.80;;
21206;SDS011;10761;48.532;8.026;2023-05-07T02:29:21;3.83;;;2.95;;
21206;SDS011;10761;48.532;8.026;2023-05-07T02:31:47;4.15;;;2.60;;
21206;SDS011;10761;48.532;8.026;2023-05-07T02:34:15;2.53;;;2.33;;
21206;SDS011;10761;48.532;8.026;2023-05-07T02:36:41;2.95;;;2.53;;
21206;SDS011;10761;48.532;8.026;2023-05-07T02:39:07;6.10;;;2.90;;
21206;SDS011;10761;48.532;8.026;2023-05-07T02:41:33;3.67;;;2.78;;
21206;SDS011;10761;48.532;8.026;2023-05-07T02:43:58;2.53;;;2.33;;
21206;SDS011;10761;48.532;8.026;2023-05-07T02:46:24;4.05;;;2.55;;
21206;SDS011;10761;48.532;8.026;2023-05-07T02:48:50;3.88;;;2.35;;
21206;SDS011;10761;48.532;8.026;2023-05-07T02:51:17;4.38;;;2.38;;
21206;SDS011;10761;48.532;8.026;2023-05-07T02:53:44;3.42;;;2.42;;
21206;SDS011;10761;48.532;8.026;2023-05-07T02:56:10;5.13;;;2.50;;
21206;SDS011;10761;48.532;8.026;2023-05-07T02:58:36;3.50;;;2.53;;
21206;SDS011;10761;48.532;8.026;2023-05-07T03:01:02;5.32;;;2.80;;
21206;SDS011;10761;48.532;8.026;2023-05-07T03:03:27;10.30;;;3.22;;
21206;SDS011;10761;48.532;8.026;2023-05-07T03:05:53;6.03;;;2.47;;
21206;SDS011;10761;48.532;8.026;2023-05-07T03:08:18;3.53;;;3.17;;
21206;SDS011;10761;48.532;8.026;2023-05-07T03:10:44;5.05;;;3.22;;
21206;SDS011;10761;48.532;8.026;2023-05-07T03:13:09;4.28;;;2.92;;
21206;SDS011;10761;48.532;8.026;2023-05-07T03:15:35;7.10;;;2.92;;
21206;SDS011;10761;48.532;8.026;2023-05-07T03:18:01;5.18;;;2.90;;
21206;SDS011;10761;48.532;8.026;2023-05-07T03:20:27;4.60;;;3.05;;
21206;SDS011;10761;48.532;8.026;2023-05-07T03:22:52;3.92;;;3.00;;
21206;SDS011;10761;48.532;8.026;2023-05-07T03:25:18;4.40;;;2.50;;
21206;SDS011;10761;48.532;8.026;2023-05-07T03:27:43;3.88;;;2.88;;
21206;SDS011;10761;48.532;8.026;2023-05-07T03:30:09;8.88;;;3.03;;
21206;SDS011;10761;48.532;8.026;2023-05-07T03:32:35;6.38;;;3.13;;
21206;SDS011;10761;48.532;8.026;2023-05-07T03:35:01;7.00;;;2.85;;
21206;SDS011;10761;48.532;8.026;2023-05-07T03:37:27;2.90;;;2.60;;
21206;SDS011;10761;48.532;8.026;2023-05-07T03:39:53;4.57;;;2.67;;
21206;SDS011;10761;48.532;8.026;2023-05-07T03:42:18;4.22;;;2.47;;
21206;SDS011;10761;48.532;8.026;2023-05-07T03:44:44;3.25;;;2.95;;
21206;SDS011;10761;48.532;8.026;2023-05-07T03:47:09;5.18;;;3.38;;
21206;SDS011;10761;48.532;8.026;2023-05-07T03:49:35;5.57;;;2.67;;
21206;SDS011;10761;48.532;8.026;2023-05-07T03:52:01;4.05;;;2.45;;
21206;SDS011;10761;48.532;8.026;2023-05-07T03:54:27;4.20;;;2.60;;
21206;SDS011;10761;48.532;8.026;2023-05-07T03:56:52;3.00;;;2.78;;
21206;SDS011;10761;48.532;8.026;2023-05-07T03:59:18;5.10;;;2.60;;
21206;SDS011;10761;48.532;8.026;2023-05-07T04:01:43;5.47;;;2.40;;
21206;SDS011;10761;48.532;8.026;2023-05-07T04:04:09;4.80;;;2.30;;
21206;SDS011;10761;48.532;8.026;2023-05-07T04:06:35;5.57;;;3.22;;
21206;SDS011;10761;48.532;8.026;2023-05-07T04:09:00;6.50;;;3.45;;
21206;SDS011;10761;48.532;8.026;2023-05-07T04:11:26;4.82;;;3.20;;
21206;SDS011;10761;48.532;8.026;2023-05-07T04:13:52;3.45;;;3.08;;
21206;SDS011;10761;48.532;8.026;2023-05-07T04:16:17;6.90;;;3.50;;
21206;SDS011;10761;48.532;8.026;2023-05-07T04:18:43;3.35;;;2.72;;
21206;SDS011;10761;48.532;8.026;2023-05-07T04:21:15;2.83;;;2.63;;
21206;SDS011;10761;48.532;8.026;2023-05-07T04:23:42;4.55;;;2.90;;
21206;SDS011;10761;48.532;8.026;2023-05-07T04:26:08;3.35;;;3.05;;
21206;SDS011;10761;48.532;8.026;2023-05-07T04:28:34;5.35;;;2.80;;
21206;SDS011;10761;48.532;8.026;2023-05-07T04:31:00;5.53;;;3.20;;
21206;SDS011;10761;48.532;8.026;2023-05-07T04:33:25;3.95;;;3.55;;
21206;SDS011;10761;48.532;8.026;2023-05-07T04:35:51;5.68;;;3.97;;
21206;SDS011;10761;48.532;8.026;2023-05-07T04:38:16;4.95;;;3.72;;
21206;SDS011;10761;48.532;8.026;2023-05-07T04:40:43;5.80;;;2.80;;
21206;SDS011;10761;48.532;8.026;2023-05-07T04:43:09;3.08;;;2.55;;
21206;SDS011;10761;48.532;8.026;2023-05-07T04:45:36;3.70;;;3.00;;
21206;SDS011;10761;48.532;8.026;2023-05-07T04:48:01;4.43;;;2.65;;
21206;SDS011;10761;48.532;8.026;2023-05-07T04:50:27;4.70;;;3.05;;
21206;SDS011;10761;48.532;8.026;2023-05-07T04:52:53;6.68;;;4.30;;
21206;SDS011;10761;48.532;8.026;2023-05-07T04:55:18;4.68;;;3.97;;
21206;SDS011;10761;48.532;8.026;2023-05-07T04:57:44;4.43;;;4.03;;
21206;SDS011;10761;48.532;8.026;2023-05-07T05:00:10;5.80;;;4.65;;
21206;SDS011;10761;48.532;8.026;2023-05-07T05:02:39;6.05;;;4.13;;
21206;SDS011;10761;48.532;8.026;2023-05-07T05:05:05;7.97;;;5.07;;
21206;SDS011;10761;48.532;8.026;2023-05-07T05:07:31;6.55;;;4.00;;
21206;SDS011;10761;48.532;8.026;2023-05-07T05:09:57;4.25;;;3.83;;
21206;SDS011;10761;48.532;8.026;2023-05-07T05:12:22;4.45;;;3.90;;
21206;SDS011;10761;48.532;8.026;2023-05-07T05:14:48;6.75;;;3.72;;
21206;SDS011;10761;48.532;8.026;2023-05-07T05:17:14;6.72;;;5.65;;
21206;SDS011;10761;48.532;8.026;2023-05-07T05:19:39;5.93;;;5.07;;
21206;SDS011;10761;48.532;8.026;2023-05-07T05:22:05;9.18;;;6.63;;
21206;SDS011;10761;48.532;8.026;2023-05-07T05:24:31;8.38;;;5.80;;
21206;SDS011;10761;48.532;8.026;2023-05-07T05:26:56;9.10;;;5.95;;
21206;SDS011;10761;48.532;8.026;2023-05-07T05:29:22;7.20;;;5.32;;
21206;SDS011;10761;48.532;8.026;2023-05-07T05:31:47;8.75;;;5.25;;
21206;SDS011;10761;48.532;8.026;2023-05-07T05:34:13;5.95;;;5.10;;
21206;SDS011;10761;48.532;8.026;2023-05-07T05:36:39;7.82;;;4.97;;
21206;SDS011;10761;48.532;8.026;2023-05-07T05:39:04;9.65;;;5.40;;
21206;SDS011;10761;48.532;8.026;2023-05-07T05:41:30;5.70;;;5.10;;
21206;SDS011;10761;48.532;8.026;2023-05-07T05:43:56;6.72;;;4.70;;
21206;SDS011;10761;48.532;8.026;2023-05-07T05:46:22;9.88;;;4.97;;
21206;SDS011;10761;48.532;8.026;2023-05-07T05:48:47;7.18;;;4.60;;
21206;SDS011;10761;48.532;8.026;2023-05-07T05:51:13;5.22;;;3.88;;
21206;SDS011;10761;48.532;8.026;2023-05-07T05:53:38;8.07;;;4.68;;
21206;SDS011;10761;48.532;8.026;2023-05-07T05:56:04;6.85;;;5.15;;
21206;SDS011;10761;48.532;8.026;2023-05-07T05:58:30;6.70;;;4.82;;
21206;SDS011;10761;48.532;8.026;2023-05-07T06:00:55;6.75;;;4.50;;
21206;SDS011;10761;48.532;8.026;2023-05-07T06:03:21;5.53;;;4.10;;
21206;SDS011;10761;48.532;8.026;2023-05-07T06:05:47;8.48;;;4.70;;
21206;SDS011;10761;48.532;8.026;2023-05-07T06:08:13;5.55;;;4.35;;
21206;SDS011;10761;48.532;8.026;2023-05-07T06:10:38;7.03;;;4.10;;
21206;SDS011;10761;48.532;8.026;2023-05-07T06:13:04;5.22;;;3.50;;
21206;SDS011;10761;48.532;8.026;2023-05-07T06:15:30;6.45;;;3.80;;
21206;SDS011;10761;48.532;8.026;2023-05-07T06:17:56;4.55;;;3.90;;
21206;SDS011;10761;48.532;8.026;2023-05-07T06:20:22;7.60;;;4.28;;
21206;SDS011;10761;48.532;8.026;2023-05-07T06:22:48;8.18;;;4.07;;
21206;SDS011;10761;48.532;8.026;2023-05-07T06:25:14;5.70;;;4.57;;
21206;SDS011;10761;48.532;8.026;2023-05-07T06:27:40;5.28;;;4.78;;
21206;SDS011;10761;48.532;8.026;2023-05-07T06:30:05;5.30;;;3.75;;
21206;SDS011;10761;48.532;8.026;2023-05-07T06:32:32;5.97;;;3.33;;
21206;SDS011;10761;48.532;8.026;2023-05-07T06:34:57;4.35;;;3.47;;
21206;SDS011;10761;48.532;8.026;2023-05-07T06:37:23;5.85;;;3.60;;
21206;SDS011;10761;48.532;8.026;2023-05-07T06:39:49;3.97;;;3.53;;
21206;SDS011;10761;48.532;8.026;2023-05-07T06:42:14;4.70;;;3.65;;
21206;SDS011;10761;48.532;8.026;2023-05-07T06:44:40;4.47;;;3.20;;
21206;SDS011;10761;48.532;8.026;2023-05-07T06:47:05;4.57;;;3.33;;
21206;SDS011;10761;48.532;8.026;2023-05-07T06:49:31;4.78;;;3.38;;
21206;SDS011;10761;48.532;8.026;2023-05-07T06:51:57;5.10;;;2.72;;
21206;SDS011;10761;48.532;8.026;2023-05-07T06:54:23;6.13;;;2.72;;
21206;SDS011;10761;48.532;8.026;2023-05-07T06:56:48;7.88;;;2.95;;
21206;SDS011;10761;48.532;8.026;2023-05-07T06:59:14;7.13;;;3.00;;
21206;SDS011;10761;48.532;8.026;2023-05-07T07:01:40;6.05;;;2.58;;
21206;SDS011;10761;48.532;8.026;2023-05-07T07:04:06;3.63;;;2.78;;
21206;SDS011;10761;48.532;8.026;2023-05-07T07:06:32;4.57;;;2.80;;
21206;SDS011;10761;48.532;8.026;2023-05-07T07:08:58;4.18;;;2.78;;
21206;SDS011;10761;48.532;8.026;2023-05-07T07:11:24;4.07;;;2.65;;
21206;SDS011;10761;48.532;8.026;2023-05-07T07:13:50;3.97;;;2.67;;
21206;SDS011;10761;48.532;8.026;2023-05-07T07:16:15;4.57;;;2.47;;
21206;SDS011;10761;48.532;8.026;2023-05-07T07:18:41;5.57;;;2.92;;
21206;SDS011;10761;48.532;8.026;2023-05-07T07:21:06;3.58;;;2.78;;
21206;SDS011;10761;48.532;8.026;2023-05-07T07:23:32;4.65;;;2.95;;
21206;SDS011;10761;48.532;8.026;2023-05-07T07:25:58;4.50;;;2.58;;
21206;SDS011;10761;48.532;8.026;2023-05-07T07:28:23;5.70;;;2.50;;
21206;SDS011;10761;48.532;8.026;2023-05-07T07:30:49;6.68;;;2.85;;
21206;SDS011;10761;48.532;8.026;2023-05-07T07:33:15;2.70;;;2.50;;
21206;SDS011;10761;48.532;8.026;2023-05-07T07:35:40;3.90;;;2.60;;
21206;SDS011;10761;48.532;8.026;2023-05-07T07:38:06;6.28;;;2.67;;
21206;SDS011;10761;48.532;8.026;2023-05-07T07:40:34;8.45;;;2.50;;
21206;SDS011;10761;48.532;8.026;2023-05-07T07:43:00;5.57;;;2.30;;
21206;SDS011;10761;48.532;8.026;2023-05-07T07:45:26;4.85;;;2.40;;
21206;SDS011;10761;48.532;8.026;2023-05-07T07:47:51;4.57;;;2.13;;
21206;SDS011;10761;48.532;8.026;2023-05-07T07:50:17;4.32;;;2.15;;
21206;SDS011;10761;48.532;8.026;2023-05-07T07:52:43;3.38;;;2.15;;
21206;SDS011;10761;48.532;8.026;2023-05-07T07:55:09;3.50;;;1.88;;
21206;SDS011;10761;48.532;8.026;2023-05-07T07:57:34;3.47;;;1.75;;
21206;SDS011;10761;48.532;8.026;2023-05-07T08:00:00;2.10;;;1.80;;
21206;SDS011;10761;48.532;8.026;2023-05-07T08:02:26;3.47;;;2.13;;
21206;SDS011;10761;48.532;8.026;2023-05-07T08:04:52;3.13;;;1.98;;
21206;SDS011;10761;48.532;8.026;2023-05-07T08:07:17;2.45;;;2.05;;
21206;SDS011;10761;48.532;8.026;2023-05-07T08:09:45;2.20;;;1.70;;
21206;SDS011;10761;48.532;8.026;2023-05-07T08:12:11;2.47;;;1.70;;
21206;SDS011;10761;48.532;8.026;2023-05-07T08:14:37;2.88;;;1.90;;
21206;SDS011;10761;48.532;8.026;2023-05-07T08:17:02;3.88;;;1.88;;
21206;SDS011;10761;48.532;8.026;2023-05-07T08:19:28;4.50;;;2.35;;
21206;SDS011;10761;48.532;8.026;2023-05-07T08:21:54;3.78;;;2.33;;
21206;SDS011;10761;48.532;8.026;2023-05-07T08:24:20;2.92;;;2.25;;
21206;SDS011;10761;48.532;8.026;2023-05-07T08:26:46;4.35;;;2.88;;
21206;SDS011;10761;48.532;8.026;2023-05-07T08:29:11;5.70;;;2.60;;
21206;SDS011;10761;48.532;8.026;2023-05-07T08:31:37;13.07;;;4.10;;
21206;SDS011;10761;48.532;8.026;2023-05-07T08:34:06;3.80;;;3.50;;
21206;SDS011;10761;48.532;8.026;2023-05-07T08:36:31;5.38;;;3.50;;
21206;SDS011;10761;48.532;8.026;2023-05-07T08:38:57;4.72;;;3.67;;
21206;SDS011;10761;48.532;8.026;2023-05-07T08:41:23;8.02;;;4.32;;
21206;SDS011;10761;48.532;8.026;2023-05-07T08:43:49;5.47;;;3.45;;
21206;SDS011;10761;48.532;8.026;2023-05-07T08:46:20;5.47;;;4.10;;
21206;SDS011;10761;48.532;8.026;2023-05-07T08:48:49;5.88;;;4.30;;
21206;SDS011;10761;48.532;8.026;2023-05-07T08:51:17;4.60;;;4.07;;
21206;SDS011;10761;48.532;8.026;2023-05-07T08:53:45;5.60;;;3.70;;
21206;SDS011;10761;48.532;8.026;2023-05-07T08:56:13;5.63;;;3.63;;
21206;SDS011;10761;48.532;8.026;2023-05-07T08:58:40;7.47;;;3.38;;
21206;SDS011;10761;48.532;8.026;2023-05-07T09:01:08;7.28;;;3.80;;
21206;SDS011;10761;48.532;8.026;2023-05-07T09:03:36;3.70;;;3.40;;
21206;SDS011;10761;48.532;8.026;2023-05-07T09:06:04;6.97;;;4.50;;
21206;SDS011;10761;48.532;8.026;2023-05-07T09:08:30;6.53;;;3.72;;
21206;SDS011;10761;48.532;8.026;2023-05-07T09:10:57;7.93;;;3.78;;
21206;SDS011;10761;48.532;8.026;2023-05-07T09:13:23;4.47;;;3.80;;
21206;SDS011;10761;48.532;8.026;2023-05-07T09:15:48;5.57;;;3.85;;
21206;SDS011;10761;48.532;8.026;2023-05-07T09:18:14;6.63;;;3.80;;
21206;SDS011;10761;48.532;8.026;2023-05-07T09:20:40;4.47;;;3.80;;
21206;SDS011;10761;48.532;8.026;2023-05-07T09:23:06;5.72;;;3.90;;
21206;SDS011;10761;48.532;8.026;2023-05-07T09:25:32;4.70;;;4.05;;
21206;SDS011;10761;48.532;8.026;2023-05-07T09:27:59;7.35;;;4.45;;
21206;SDS011;10761;48.532;8.026;2023-05-07T09:30:32;4.20;;;3.70;;
21206;SDS011;10761;48.532;8.026;2023-05-07T09:32:59;4.82;;;3.70;;
21206;SDS011;10761;48.532;8.026;2023-05-07T09:35:27;4.57;;;3.70;;
21206;SDS011;10761;48.532;8.026;2023-05-07T09:37:53;4.05;;;3.30;;
21206;SDS011;10761;48.532;8.026;2023-05-07T09:40:23;4.35;;;3.40;;
21206;SDS011;10761;48.532;8.026;2023-05-07T09:42:54;7.18;;;3.22;;
21206;SDS011;10761;48.532;8.026;2023-05-07T09:45:29;6.20;;;3.17;;
21206;SDS011;10761;48.532;8.026;2023-05-07T09:47:55;3.60;;;3.20;;
21206;SDS011;10761;48.532;8.026;2023-05-07T09:51:10;4.82;;;3.53;;
21206;SDS011;10761;48.532;8.026;2023-05-07T09:53:13;6.07;;;3.30;;
21206;SDS011;10761;48.532;8.026;2023-05-07T09:55:40;5.00;;;3.03;;
21206;SDS011;10761;48.532;8.026;2023-05-07T09:58:06;5.45;;;3.45;;
21206;SDS011;10761;48.532;8.026;2023-05-07T10:00:33;5.05;;;3.30;;
21206;SDS011;10761;48.532;8.026;2023-05-07T10:03:00;5.32;;;3.65;;
21206;SDS011;10761;48.532;8.026;2023-05-07T10:05:27;6.15;;;3.25;;
21206;SDS011;10761;48.532;8.026;2023-05-07T10:07:53;5.65;;;3.42;;
21206;SDS011;10761;48.532;8.026;2023-05-07T10:10:20;6.45;;;3.53;;
21206;SDS011;10761;48.532;8.026;2023-05-07T10:12:47;5.22;;;3.17;;
21206;SDS011;10761;48.532;8.026;2023-05-07T10:15:13;6.40;;;3.38;;
21206;SDS011;10761;48.532;8.026;2023-05-07T10:17:39;6.03;;;3.17;;
21206;SDS011;10761;48.532;8.026;2023-05-07T10:20:06;4.40;;;3.35;;
21206;SDS011;10761;48.532;8.026;2023-05-07T10:22:33;4.32;;;2.80;;
21206;SDS011;10761;48.532;8.026;2023-05-07T10:25:04;4.47;;;2.78;;
21206;SDS011;10761;48.532;8.026;2023-05-07T10:27:38;2.97;;;2.63;;
21206;SDS011;10761;48.532;8.026;2023-05-07T10:32:59;3.90;;;2.80;;
21206;SDS011;10761;48.532;8.026;2023-05-07T10:37:57;4.05;;;3.10;;
21206;SDS011;10761;48.532;8.026;2023-05-07T10:40:23;4.72;;;3.33;;
21206;SDS011;10761;48.532;8.026;2023-05-07T10:42:59;6.63;;;2.60;;
21206;SDS011;10761;48.532;8.026;2023-05-07T10:45:26;4.40;;;2.40;;
21206;SDS011;10761;48.532;8.026;2023-05-07T10:48:05;4.65;;;2.25;;
21206;SDS011;10761;48.532;8.026;2023-05-07T10:50:33;5.75;;;2.60;;
21206;SDS011;10761;48.532;8.026;2023-05-07T10:55:50;5.28;;;3.00;;
21206;SDS011;10761;48.532;8.026;2023-05-07T10:58:29;3.55;;;3.00;;
21206;SDS011;10761;48.532;8.026;2023-05-07T11:00:56;5.03;;;2.47;;
21206;SDS011;10761;48.532;8.026;2023-05-07T11:03:24;5.47;;;3.05;;
21206;SDS011;10761;48.532;8.026;2023-05-07T11:06:09;4.30;;;2.88;;
21206;SDS011;10761;48.532;8.026;2023-05-07T11:17:05;4.30;;;2.42;;
21206;SDS011;10761;48.532;8.026;2023-05-07T11:25:04;4.20;;;2.60;;
21206;SDS011;10761;48.532;8.026;2023-05-07T11:27:33;6.05;;;2.72;;
21206;SDS011;10761;48.532;8.026;2023-05-07T11:29:59;2.38;;;2.17;;
21206;SDS011;10761;48.532;8.026;2023-05-07T11:32:28;3.38;;;3.00;;
21206;SDS011;10761;48.532;8.026;2023-05-07T11:34:55;4.20;;;2.60;;
21206;SDS011;10761;48.532;8.026;2023-05-07T11:37:25;5.22;;;2.75;;
21206;SDS011;10761;48.532;8.026;2023-05-07T11:40:02;4.45;;;2.97;;
21206;SDS011;10761;48.532;8.026;2023-05-07T11:42:33;4.32;;;3.25;;
21206;SDS011;10761;48.532;8.026;2023-05-07T11:45:00;3.78;;;2.60;;
21206;SDS011;10761;48.532;8.026;2023-05-07T11:47:26;7.03;;;2.67;;
21206;SDS011;10761;48.532;8.026;2023-05-07T11:49:54;5.55;;;2.80;;
21206;SDS011;10761;48.532;8.026;2023-05-07T11:52:21;5.43;;;2.80;;
21206;SDS011;10761;48.532;8.026;2023-05-07T11:55:06;4.70;;;2.78;;
21206;SDS011;10761;48.532;8.026;2023-05-07T11:57:33;4.07;;;2.72;;
21206;SDS011;10761;48.532;8.026;2023-05-07T11:59:59;3.80;;;2.50;;
21206;SDS011;10761;48.532;8.026;2023-05-07T12:02:29;5.35;;;2.97;;
21206;SDS011;10761;48.532;8.026;2023-05-07T12:04:56;3.35;;;2.40;;
21206;SDS011;10761;48.532;8.026;2023-05-07T12:07:23;4.43;;;2.90;;
21206;SDS011;10761;48.532;8.026;2023-05-07T12:09:49;3.30;;;2.58;;
21206;SDS011;10761;48.532;8.026;2023-05-07T12:12:15;3.72;;;2.50;;
21206;SDS011;10761;48.532;8.026;2023-05-07T12:14:42;2.80;;;2.22;;
21206;SDS011;10761;48.532;8.026;2023-05-07T12:17:10;5.82;;;2.70;;
21206;SDS011;10761;48.532;8.026;2023-05-07T12:19:37;3.75;;;2.78;;
21206;SDS011;10761;48.532;8.026;2023-05-07T12:22:04;3.63;;;2.90;;
21206;SDS011;10761;48.532;8.026;2023-05-07T12:24:45;4.40;;;2.60;;
21206;SDS011;10761;48.532;8.026;2023-05-07T12:27:11;3.58;;;2.25;;
21206;SDS011;10761;48.532;8.026;2023-05-07T12:29:37;3.05;;;2.30;;
21206;SDS011;10761;48.532;8.026;2023-05-07T12:32:12;2.83;;;2.10;;
21206;SDS011;10761;48.532;8.026;2023-05-07T12:34:39;4.80;;;2.28;;
21206;SDS011;10761;48.532;8.026;2023-05-07T12:37:04;2.72;;;2.33;;
21206;SDS011;10761;48.532;8.026;2023-05-07T12:39:30;5.57;;;2.45;;
21206;SDS011;10761;48.532;8.026;2023-05-07T12:41:58;5.78;;;2.55;;
21206;SDS011;10761;48.532;8.026;2023-05-07T12:44:25;3.50;;;2.60;;
21206;SDS011;10761;48.532;8.026;2023-05-07T12:46:54;5.10;;;2.53;;
21206;SDS011;10761;48.532;8.026;2023-05-07T12:49:20;3.30;;;2.50;;
21206;SDS011;10761;48.532;8.026;2023-05-07T12:51:46;2.63;;;2.42;;
21206;SDS011;10761;48.532;8.026;2023-05-07T12:54:13;5.32;;;2.25;;
21206;SDS011;10761;48.532;8.026;2023-05-07T12:56:39;3.00;;;2.47;;
21206;SDS011;10761;48.532;8.026;2023-05-07T12:59:05;4.72;;;3.08;;
21206;SDS011;10761;48.532;8.026;2023-05-07T13:01:30;4.45;;;2.72;;
21206;SDS011;10761;48.532;8.026;2023-05-07T13:04:00;4.72;;;2.60;;
21206;SDS011;10761;48.532;8.026;2023-05-07T13:06:27;5.03;;;2.80;;
21206;SDS011;10761;48.532;8.026;2023-05-07T13:08:54;2.85;;;2.58;;
21206;SDS011;10761;48.532;8.026;2023-05-07T13:11:20;6.18;;;3.22;;
21206;SDS011;10761;48.532;8.026;2023-05-07T13:13:46;3.47;;;3.10;;
21206;SDS011;10761;48.532;8.026;2023-05-07T13:16:11;6.95;;;3.00;;
21206;SDS011;10761;48.532;8.026;2023-05-07T13:18:38;4.13;;;2.92;;
21206;SDS011;10761;48.532;8.026;2023-05-07T13:21:04;6.38;;;4.30;;
21206;SDS011;10761;48.532;8.026;2023-05-07T13:23:30;5.13;;;3.30;;
21206;SDS011;10761;48.532;8.026;2023-05-07T13:25:56;6.47;;;3.70;;
21206;SDS011;10761;48.532;8.026;2023-05-07T13:28:22;6.32;;;4.10;;
21206;SDS011;10761;48.532;8.026;2023-05-07T13:30:49;4.80;;;3.47;;
21206;SDS011;10761;48.532;8.026;2023-05-07T13:33:16;6.75;;;3.88;;
21206;SDS011;10761;48.532;8.026;2023-05-07T13:35:43;5.32;;;4.22;;
21206;SDS011;10761;48.532;8.026;2023-05-07T13:38:08;6.30;;;4.45;;
21206;SDS011;10761;48.532;8.026;2023-05-07T13:40:34;6.68;;;4.40;;
21206;SDS011;10761;48.532;8.026;2023-05-07T13:43:00;4.13;;;3.72;;
21206;SDS011;10761;48.532;8.026;2023-05-07T13:45:27;6.10;;;3.90;;
21206;SDS011;10761;48.532;8.026;2023-05-07T13:47:54;4.65;;;3.70;;
21206;SDS011;10761;48.532;8.026;2023-05-07T13:50:20;5.82;;;4.03;;
21206;SDS011;10761;48.532;8.026;2023-05-07T13:52:45;4.97;;;4.15;;
21206;SDS011;10761;48.532;8.026;2023-05-07T13:55:16;5.00;;;4.18;;
21206;SDS011;10761;48.532;8.026;2023-05-07T13:57:54;4.80;;;4.05;;
21206;SDS011;10761;48.532;8.026;2023-05-07T14:00:21;6.30;;;4.18;;
21206;SDS011;10761;48.532;8.026;2023-05-07T14:02:47;5.03;;;3.40;;
21206;SDS011;10761;48.532;8.026;2023-05-07T14:05:13;4.45;;;2.75;;
21206;SDS011;10761;48.532;8.026;2023-05-07T14:07:38;4.75;;;2.50;;
21206;SDS011;10761;48.532;8.026;2023-05-07T14:10:04;3.42;;;2.10;;
21206;SDS011;10761;48.532;8.026;2023-05-07T14:12:31;4.00;;;2.28;;
21206;SDS011;10761;48.532;8.026;2023-05-07T14:14:57;2.92;;;2.08;;
21206;SDS011;10761;48.532;8.026;2023-05-07T14:17:23;2.83;;;2.35;;
21206;SDS011;10761;48.532;8.026;2023-05-07T14:19:51;3.75;;;2.40;;
21206;SDS011;10761;48.532;8.026;2023-05-07T14:22:19;3.53;;;2.20;;
21206;SDS011;10761;48.532;8.026;2023-05-07T14:24:48;3.45;;;2.47;;
21206;SDS011;10761;48.532;8.026;2023-05-07T14:27:14;6.68;;;3.15;;
21206;SDS011;10761;48.532;8.026;2023-05-07T14:29:40;6.05;;;2.80;;
21206;SDS011;10761;48.532;8.026;2023-05-07T14:32:07;2.72;;;2.53;;
21206;SDS011;10761;48.532;8.026;2023-05-07T14:34:33;3.42;;;2.97;;
21206;SDS011;10761;48.532;8.026;2023-05-07T14:36:59;3.63;;;2.72;;
21206;SDS011;10761;48.532;8.026;2023-05-07T14:39:25;4.38;;;2.83;;
21206;SDS011;10761;48.532;8.026;2023-05-07T14:41:51;3.42;;;2.20;;
21206;SDS011;10761;48.532;8.026;2023-05-07T14:44:20;2.95;;;2.30;;
21206;SDS011;10761;48.532;8.026;2023-05-07T14:46:45;5.35;;;2.22;;
21206;SDS011;10761;48.532;8.026;2023-05-07T14:49:11;5.80;;;2.40;;
21206;SDS011;10761;48.532;8.026;2023-05-07T14:51:42;2.78;;;2.33;;
21206;SDS011;10761;48.532;8.026;2023-05-07T14:54:09;3.88;;;2.40;;
21206;SDS011;10761;48.532;8.026;2023-05-07T14:56:35;3.58;;;2.38;;
21206;SDS011;10761;48.532;8.026;2023-05-07T14:59:01;2.67;;;2.10;;
21206;SDS011;10761;48.532;8.026;2023-05-07T15:01:27;5.05;;;2.15;;
21206;SDS011;10761;48.532;8.026;2023-05-07T15:03:53;5.93;;;2.00;;
21206;SDS011;10761;48.532;8.026;2023-05-07T15:06:19;4.43;;;2.30;;